sensor_id;sensor_type;location;lat;lon;timestamp;P1;durP1;ratioP1;P2;durP2;ratioP2
11191;SDS011;5652;48.406;10.820;2023-02-22T00:01:08;10.70;;;6.57;;
11191;SDS011;5652;48.406;10.820;2023-02-22T00:03:46;8.25;;;6.20;;
11191;SDS011;5652;48.406;10.820;2023-02-22T00:06:15;9.52;;;6.25;;
11191;SDS011;5652;48.406;10.820;2023-02-22T00:08:42;11.23;;;6.55;;
11191;SDS011;5652;48.406;10.820;2023-02-22T00:11:10;10.10;;;6.55;;
11191;SDS011;5652;48.406;10.820;2023-02-22T00:13:40;11.38;;;6.93;;
11191;SDS011;5652;48.406;10.820;2023-02-22T00:16:09;12.82;;;6.00;;
11191;SDS011;5652;48.406;10.820;2023-02-22T00:18:39;8.30;;;5.65;;
11191;SDS011;5652;48.406;10.820;2023-02-22T00:21:06;10.77;;;6.05;;
11191;SDS011;5652;48.406;10.820;2023-02-22T00:23:34;10.05;;;6.10;;
11191;SDS011;5652;48.406;10.820;2023-02-22T00:26:04;12.40;;;6.68;;
11191;SDS011;5652;48.406;10.820;2023-02-22T00:28:33;10.05;;;5.88;;
11191;SDS011;5652;48.406;10.820;2023-02-22T00:31:02;11.25;;;6.60;;
11191;SDS011;5652;48.406;10.820;2023-02-22T00:33:31;11.15;;;6.03;;
11191;SDS011;5652;48.406;10.820;2023-02-22T00:35:58;11.10;;;6.28;;
11191;SDS011;5652;48.406;10.820;2023-02-22T00:38:25;9.30;;;6.07;;
11191;SDS011;5652;48.406;10.820;2023-02-22T00:40:52;9.90;;;5.78;;
11191;SDS011;5652;48.406;10.820;2023-02-22T00:43:19;11.63;;;6.38;;
11191;SDS011;5652;48.406;10.820;2023-02-22T00:45:46;10.50;;;6.55;;
11191;SDS011;5652;48.406;10.820;2023-02-22T00:48:15;12.35;;;6.38;;
11191;SDS011;5652;48.406;10.820;2023-02-22T00:50:43;10.52;;;6.43;;
11191;SDS011;5652;48.406;10.820;2023-02-22T00:53:14;11.73;;;6.13;;
11191;SDS011;5652;48.406;10.820;2023-02-22T00:55:41;12.13;;;6.68;;
11191;SDS011;5652;48.406;10.820;2023-02-22T00:58:09;10.82;;;6.43;;
11191;SDS011;5652;48.406;10.820;2023-02-22T01:00:37;11.67;;;7.30;;
11191;SDS011;5652;48.406;10.820;2023-02-22T01:03:06;14.45;;;7.47;;
11191;SDS011;5652;48.406;10.820;2023-02-22T01:05:34;15.52;;;7.93;;
11191;SDS011;5652;48.406;10.820;2023-02-22T01:08:02;12.98;;;7.03;;
11191;SDS011;5652;48.406;10.820;2023-02-22T01:10:31;12.90;;;7.07;;
11191;SDS011;5652;48.406;10.820;2023-02-22T01:12:59;13.75;;;7.60;;
11191;SDS011;5652;48.406;10.820;2023-02-22T01:15:29;12.18;;;6.80;;
11191;SDS011;5652;48.406;10.820;2023-02-22T01:17:56;10.38;;;6.90;;
11191;SDS011;5652;48.406;10.820;2023-02-22T01:20:25;10.27;;;6.63;;
11191;SDS011;5652;48.406;10.820;2023-02-22T01:22:55;12.40;;;7.25;;
11191;SDS011;5652;48.406;10.820;2023-02-22T01:25:23;9.10;;;6.43;;
11191;SDS011;5652;48.406;10.820;2023-02-22T01:27:51;11.15;;;6.88;;
11191;SDS011;5652;48.406;10.820;2023-02-22T01:30:19;10.27;;;6.97;;
11191;SDS011;5652;48.406;10.820;2023-02-22T01:32:46;11.70;;;6.57;;
11191;SDS011;5652;48.406;10.820;2023-02-22T01:35:16;12.18;;;7.05;;
11191;SDS011;5652;48.406;10.820;2023-02-22T01:37:43;10.82;;;7.18;;
11191;SDS011;5652;48.406;10.820;2023-02-22T01:40:15;11.07;;;6.55;;
11191;SDS011;5652;48.406;10.820;2023-02-22T01:42:45;11.60;;;6.47;;
11191;SDS011;5652;48.406;10.820;2023-02-22T01:47:59;12.23;;;6.65;;
11191;SDS011;5652;48.406;10.820;2023-02-22T01:50:28;12.25;;;6.95;;
11191;SDS011;5652;48.406;10.820;2023-02-22T01:52:57;11.73;;;6.78;;
11191;SDS011;5652;48.406;10.820;2023-02-22T01:55:25;11.05;;;6.57;;
11191;SDS011;5652;48.406;10.820;2023-02-22T01:57:53;11.77;;;7.10;;
11191;SDS011;5652;48.406;10.820;2023-02-22T02:00:20;11.50;;;7.20;;
11191;SDS011;5652;48.406;10.820;2023-02-22T02:02:51;13.68;;;7.50;;
11191;SDS011;5652;48.406;10.820;2023-02-22T02:05:22;11.02;;;7.38;;
11191;SDS011;5652;48.406;10.820;2023-02-22T02:07:50;14.25;;;7.40;;
11191;SDS011;5652;48.406;10.820;2023-02-22T02:10:17;11.68;;;6.75;;
11191;SDS011;5652;48.406;10.820;2023-02-22T02:12:47;11.65;;;7.50;;
11191;SDS011;5652;48.406;10.820;2023-02-22T02:15:16;10.68;;;6.80;;
11191;SDS011;5652;48.406;10.820;2023-02-22T02:17:43;10.40;;;6.88;;
11191;SDS011;5652;48.406;10.820;2023-02-22T02:20:12;9.77;;;5.97;;
11191;SDS011;5652;48.406;10.820;2023-02-22T02:22:45;10.48;;;6.50;;
11191;SDS011;5652;48.406;10.820;2023-02-22T02:25:41;12.00;;;6.22;;
11191;SDS011;5652;48.406;10.820;2023-02-22T02:31:08;14.93;;;7.60;;
11191;SDS011;5652;48.406;10.820;2023-02-22T02:33:42;13.27;;;7.10;;
11191;SDS011;5652;48.406;10.820;2023-02-22T02:36:12;11.33;;;7.40;;
11191;SDS011;5652;48.406;10.820;2023-02-22T02:38:42;13.70;;;7.63;;
11191;SDS011;5652;48.406;10.820;2023-02-22T02:41:12;11.10;;;7.20;;
11191;SDS011;5652;48.406;10.820;2023-02-22T02:43:41;10.60;;;6.45;;
11191;SDS011;5652;48.406;10.820;2023-02-22T02:46:11;9.52;;;5.80;;
11191;SDS011;5652;48.406;10.820;2023-02-22T02:48:41;8.90;;;5.85;;
11191;SDS011;5652;48.406;10.820;2023-02-22T02:51:10;9.85;;;6.20;;
11191;SDS011;5652;48.406;10.820;2023-02-22T02:53:40;11.05;;;5.88;;
11191;SDS011;5652;48.406;10.820;2023-02-22T02:56:08;8.98;;;5.60;;
11191;SDS011;5652;48.406;10.820;2023-02-22T02:58:41;8.70;;;6.00;;
11191;SDS011;5652;48.406;10.820;2023-02-22T03:01:09;8.97;;;5.77;;
11191;SDS011;5652;48.406;10.820;2023-02-22T03:03:44;8.65;;;5.90;;
11191;SDS011;5652;48.406;10.820;2023-02-22T03:06:18;9.88;;;5.88;;
11191;SDS011;5652;48.406;10.820;2023-02-22T03:08:49;7.03;;;5.53;;
11191;SDS011;5652;48.406;10.820;2023-02-22T03:11:20;9.07;;;5.85;;
11191;SDS011;5652;48.406;10.820;2023-02-22T03:13:49;8.52;;;5.90;;
11191;SDS011;5652;48.406;10.820;2023-02-22T03:16:19;7.53;;;5.60;;
11191;SDS011;5652;48.406;10.820;2023-02-22T03:18:48;8.43;;;5.90;;
11191;SDS011;5652;48.406;10.820;2023-02-22T03:21:21;8.50;;;6.55;;
11191;SDS011;5652;48.406;10.820;2023-02-22T03:23:49;9.88;;;6.80;;
11191;SDS011;5652;48.406;10.820;2023-02-22T03:26:19;9.23;;;6.22;;
11191;SDS011;5652;48.406;10.820;2023-02-22T03:28:48;8.75;;;6.07;;
11191;SDS011;5652;48.406;10.820;2023-02-22T03:31:18;9.10;;;6.18;;
11191;SDS011;5652;48.406;10.820;2023-02-22T03:33:50;8.23;;;6.60;;
11191;SDS011;5652;48.406;10.820;2023-02-22T03:36:21;9.25;;;6.55;;
11191;SDS011;5652;48.406;10.820;2023-02-22T03:38:50;9.65;;;6.28;;
11191;SDS011;5652;48.406;10.820;2023-02-22T03:41:20;8.82;;;6.38;;
11191;SDS011;5652;48.406;10.820;2023-02-22T03:43:49;10.13;;;6.35;;
11191;SDS011;5652;48.406;10.820;2023-02-22T03:46:18;9.98;;;6.63;;
11191;SDS011;5652;48.406;10.820;2023-02-22T03:48:47;9.32;;;6.47;;
11191;SDS011;5652;48.406;10.820;2023-02-22T03:51:18;10.25;;;6.45;;
11191;SDS011;5652;48.406;10.820;2023-02-22T03:53:46;9.50;;;6.43;;
11191;SDS011;5652;48.406;10.820;2023-02-22T03:56:14;9.70;;;6.45;;
11191;SDS011;5652;48.406;10.820;2023-02-22T03:58:44;10.23;;;6.70;;
11191;SDS011;5652;48.406;10.820;2023-02-22T04:01:12;9.60;;;6.63;;
11191;SDS011;5652;48.406;10.820;2023-02-22T04:03:40;11.13;;;6.25;;
11191;SDS011;5652;48.406;10.820;2023-02-22T04:06:07;9.13;;;6.20;;
11191;SDS011;5652;48.406;10.820;2023-02-22T04:08:35;9.10;;;6.07;;
11191;SDS011;5652;48.406;10.820;2023-02-22T04:11:03;10.68;;;6.28;;
11191;SDS011;5652;48.406;10.820;2023-02-22T04:13:30;8.23;;;5.88;;
11191;SDS011;5652;48.406;10.820;2023-02-22T04:15:58;9.38;;;6.18;;
11191;SDS011;5652;48.406;10.820;2023-02-22T04:18:25;9.05;;;5.97;;
11191;SDS011;5652;48.406;10.820;2023-02-22T04:20:52;9.05;;;5.97;;
11191;SDS011;5652;48.406;10.820;2023-02-22T04:23:19;9.07;;;5.57;;
11191;SDS011;5652;48.406;10.820;2023-02-22T04:25:46;8.30;;;5.47;;
11191;SDS011;5652;48.406;10.820;2023-02-22T04:28:14;8.43;;;5.88;;
11191;SDS011;5652;48.406;10.820;2023-02-22T04:30:42;10.57;;;6.22;;
11191;SDS011;5652;48.406;10.820;2023-02-22T04:33:10;10.23;;;6.30;;
11191;SDS011;5652;48.406;10.820;2023-02-22T04:35:37;10.50;;;6.03;;
11191;SDS011;5652;48.406;10.820;2023-02-22T04:38:04;8.50;;;6.20;;
11191;SDS011;5652;48.406;10.820;2023-02-22T04:40:33;8.17;;;6.20;;
11191;SDS011;5652;48.406;10.820;2023-02-22T04:43:00;10.23;;;6.30;;
11191;SDS011;5652;48.406;10.820;2023-02-22T04:45:28;11.47;;;6.00;;
11191;SDS011;5652;48.406;10.820;2023-02-22T04:47:55;10.85;;;6.50;;
11191;SDS011;5652;48.406;10.820;2023-02-22T04:50:23;11.65;;;6.85;;
11191;SDS011;5652;48.406;10.820;2023-02-22T04:52:50;12.10;;;7.88;;
11191;SDS011;5652;48.406;10.820;2023-02-22T04:55:17;13.10;;;7.68;;
11191;SDS011;5652;48.406;10.820;2023-02-22T04:57:44;12.85;;;8.65;;
11191;SDS011;5652;48.406;10.820;2023-02-22T05:00:15;14.45;;;10.15;;
11191;SDS011;5652;48.406;10.820;2023-02-22T05:02:43;14.93;;;10.02;;
11191;SDS011;5652;48.406;10.820;2023-02-22T05:05:12;16.00;;;10.48;;
11191;SDS011;5652;48.406;10.820;2023-02-22T05:07:39;14.38;;;10.40;;
11191;SDS011;5652;48.406;10.820;2023-02-22T05:10:06;13.18;;;9.40;;
11191;SDS011;5652;48.406;10.820;2023-02-22T05:12:34;14.07;;;8.80;;
11191;SDS011;5652;48.406;10.820;2023-02-22T05:15:01;11.13;;;8.10;;
11191;SDS011;5652;48.406;10.820;2023-02-22T05:17:28;13.93;;;9.57;;
11191;SDS011;5652;48.406;10.820;2023-02-22T05:19:56;13.20;;;9.60;;
11191;SDS011;5652;48.406;10.820;2023-02-22T05:22:23;16.58;;;10.32;;
11191;SDS011;5652;48.406;10.820;2023-02-22T05:24:51;12.27;;;8.90;;
11191;SDS011;5652;48.406;10.820;2023-02-22T05:27:18;12.80;;;8.85;;
11191;SDS011;5652;48.406;10.820;2023-02-22T05:29:45;13.75;;;9.35;;
11191;SDS011;5652;48.406;10.820;2023-02-22T05:32:13;12.23;;;9.13;;
11191;SDS011;5652;48.406;10.820;2023-02-22T05:34:40;11.02;;;8.93;;
11191;SDS011;5652;48.406;10.820;2023-02-22T05:37:08;11.10;;;8.43;;
11191;SDS011;5652;48.406;10.820;2023-02-22T05:39:35;11.75;;;8.75;;
11191;SDS011;5652;48.406;10.820;2023-02-22T05:42:03;13.05;;;9.55;;
11191;SDS011;5652;48.406;10.820;2023-02-22T05:44:30;14.02;;;9.63;;
11191;SDS011;5652;48.406;10.820;2023-02-22T05:46:57;14.15;;;9.32;;
11191;SDS011;5652;48.406;10.820;2023-02-22T05:49:24;14.52;;;9.63;;
11191;SDS011;5652;48.406;10.820;2023-02-22T05:51:51;13.65;;;9.68;;
11191;SDS011;5652;48.406;10.820;2023-02-22T05:54:21;14.32;;;9.70;;
11191;SDS011;5652;48.406;10.820;2023-02-22T05:56:48;13.57;;;8.98;;
11191;SDS011;5652;48.406;10.820;2023-02-22T05:59:15;13.07;;;9.05;;
11191;SDS011;5652;48.406;10.820;2023-02-22T06:01:42;13.40;;;9.10;;
11191;SDS011;5652;48.406;10.820;2023-02-22T06:04:09;12.15;;;9.25;;
11191;SDS011;5652;48.406;10.820;2023-02-22T06:06:36;14.48;;;9.95;;
11191;SDS011;5652;48.406;10.820;2023-02-22T06:09:03;15.25;;;9.70;;
11191;SDS011;5652;48.406;10.820;2023-02-22T06:11:32;13.68;;;9.48;;
11191;SDS011;5652;48.406;10.820;2023-02-22T06:13:59;13.30;;;9.98;;
11191;SDS011;5652;48.406;10.820;2023-02-22T06:16:26;12.73;;;9.67;;
11191;SDS011;5652;48.406;10.820;2023-02-22T06:18:53;13.60;;;9.23;;
11191;SDS011;5652;48.406;10.820;2023-02-22T06:21:20;12.83;;;9.40;;
11191;SDS011;5652;48.406;10.820;2023-02-22T06:23:47;12.20;;;9.13;;
11191;SDS011;5652;48.406;10.820;2023-02-22T06:26:14;13.20;;;9.10;;
11191;SDS011;5652;48.406;10.820;2023-02-22T06:28:43;13.52;;;9.70;;
11191;SDS011;5652;48.406;10.820;2023-02-22T06:31:10;14.77;;;9.90;;
11191;SDS011;5652;48.406;10.820;2023-02-22T06:33:38;11.80;;;8.82;;
11191;SDS011;5652;48.406;10.820;2023-02-22T06:36:05;14.00;;;9.60;;
11191;SDS011;5652;48.406;10.820;2023-02-22T06:38:33;11.25;;;7.88;;
11191;SDS011;5652;48.406;10.820;2023-02-22T06:41:00;12.48;;;8.85;;
11191;SDS011;5652;48.406;10.820;2023-02-22T06:43:27;12.88;;;9.63;;
11191;SDS011;5652;48.406;10.820;2023-02-22T06:45:56;14.75;;;10.20;;
11191;SDS011;5652;48.406;10.820;2023-02-22T06:48:23;15.75;;;11.35;;
11191;SDS011;5652;48.406;10.820;2023-02-22T06:50:50;24.20;;;16.85;;
11191;SDS011;5652;48.406;10.820;2023-02-22T06:53:17;16.65;;;12.00;;
11191;SDS011;5652;48.406;10.820;2023-02-22T06:55:44;16.10;;;12.00;;
11191;SDS011;5652;48.406;10.820;2023-02-22T06:58:11;16.27;;;11.00;;
11191;SDS011;5652;48.406;10.820;2023-02-22T07:00:39;13.32;;;9.65;;
11191;SDS011;5652;48.406;10.820;2023-02-22T07:03:08;10.40;;;8.23;;
11191;SDS011;5652;48.406;10.820;2023-02-22T07:05:38;10.77;;;8.20;;
11191;SDS011;5652;48.406;10.820;2023-02-22T07:08:06;9.25;;;7.50;;
11191;SDS011;5652;48.406;10.820;2023-02-22T07:10:34;10.63;;;6.95;;
11191;SDS011;5652;48.406;10.820;2023-02-22T07:13:01;8.88;;;6.38;;
11191;SDS011;5652;48.406;10.820;2023-02-22T07:15:29;7.70;;;5.93;;
11191;SDS011;5652;48.406;10.820;2023-02-22T07:17:56;10.25;;;5.72;;
11191;SDS011;5652;48.406;10.820;2023-02-22T07:20:26;7.25;;;5.35;;
11191;SDS011;5652;48.406;10.820;2023-02-22T07:22:53;6.65;;;4.80;;
11191;SDS011;5652;48.406;10.820;2023-02-22T07:25:21;6.93;;;4.68;;
11191;SDS011;5652;48.406;10.820;2023-02-22T07:27:48;6.10;;;4.50;;
11191;SDS011;5652;48.406;10.820;2023-02-22T07:30:17;6.78;;;4.10;;
11191;SDS011;5652;48.406;10.820;2023-02-22T07:32:45;7.60;;;4.47;;
11191;SDS011;5652;48.406;10.820;2023-02-22T07:35:13;6.37;;;4.13;;
11191;SDS011;5652;48.406;10.820;2023-02-22T07:37:42;9.07;;;5.10;;
11191;SDS011;5652;48.406;10.820;2023-02-22T07:40:09;6.80;;;4.53;;
11191;SDS011;5652;48.406;10.820;2023-02-22T07:45:19;9.13;;;4.77;;
11191;SDS011;5652;48.406;10.820;2023-02-22T07:47:47;7.10;;;4.90;;
11191;SDS011;5652;48.406;10.820;2023-02-22T07:50:14;6.55;;;4.72;;
11191;SDS011;5652;48.406;10.820;2023-02-22T07:52:45;5.95;;;4.50;;
11191;SDS011;5652;48.406;10.820;2023-02-22T07:55:12;7.95;;;4.47;;
11191;SDS011;5652;48.406;10.820;2023-02-22T07:57:40;6.53;;;4.22;;
11191;SDS011;5652;48.406;10.820;2023-02-22T08:00:08;6.82;;;4.50;;
11191;SDS011;5652;48.406;10.820;2023-02-22T08:02:35;9.53;;;4.57;;
11191;SDS011;5652;48.406;10.820;2023-02-22T08:05:04;9.20;;;4.60;;
11191;SDS011;5652;48.406;10.820;2023-02-22T08:07:31;6.85;;;4.47;;
11191;SDS011;5652;48.406;10.820;2023-02-22T08:10:00;6.30;;;4.30;;
11191;SDS011;5652;48.406;10.820;2023-02-22T08:12:30;6.28;;;4.47;;
11191;SDS011;5652;48.406;10.820;2023-02-22T08:14:57;6.43;;;4.20;;
11191;SDS011;5652;48.406;10.820;2023-02-22T08:17:24;7.55;;;4.55;;
11191;SDS011;5652;48.406;10.820;2023-02-22T08:19:51;5.15;;;3.85;;
11191;SDS011;5652;48.406;10.820;2023-02-22T08:22:19;5.55;;;3.70;;
11191;SDS011;5652;48.406;10.820;2023-02-22T08:24:46;6.20;;;3.83;;
11191;SDS011;5652;48.406;10.820;2023-02-22T08:27:14;6.75;;;4.18;;
11191;SDS011;5652;48.406;10.820;2023-02-22T08:29:41;7.00;;;4.72;;
11191;SDS011;5652;48.406;10.820;2023-02-22T08:32:08;6.63;;;4.68;;
11191;SDS011;5652;48.406;10.820;2023-02-22T08:34:35;7.75;;;4.88;;
11191;SDS011;5652;48.406;10.820;2023-02-22T08:37:02;6.57;;;5.00;;
11191;SDS011;5652;48.406;10.820;2023-02-22T08:39:29;9.15;;;5.80;;
11191;SDS011;5652;48.406;10.820;2023-02-22T08:41:57;7.95;;;5.10;;
11191;SDS011;5652;48.406;10.820;2023-02-22T08:44:25;13.50;;;5.28;;
11191;SDS011;5652;48.406;10.820;2023-02-22T08:46:52;6.53;;;5.05;;
11191;SDS011;5652;48.406;10.820;2023-02-22T08:49:22;9.30;;;4.88;;
11191;SDS011;5652;48.406;10.820;2023-02-22T08:51:49;7.97;;;5.30;;
11191;SDS011;5652;48.406;10.820;2023-02-22T08:54:17;10.63;;;4.32;;
11191;SDS011;5652;48.406;10.820;2023-02-22T08:56:44;6.85;;;4.80;;
11191;SDS011;5652;48.406;10.820;2023-02-22T08:59:11;8.85;;;4.90;;
11191;SDS011;5652;48.406;10.820;2023-02-22T09:01:40;9.80;;;4.95;;
11191;SDS011;5652;48.406;10.820;2023-02-22T09:04:07;10.95;;;4.45;;
11191;SDS011;5652;48.406;10.820;2023-02-22T09:06:34;11.23;;;4.50;;
11191;SDS011;5652;48.406;10.820;2023-02-22T09:09:01;7.78;;;4.75;;
11191;SDS011;5652;48.406;10.820;2023-02-22T09:11:28;7.85;;;4.68;;
11191;SDS011;5652;48.406;10.820;2023-02-22T09:13:56;8.13;;;4.93;;
11191;SDS011;5652;48.406;10.820;2023-02-22T09:16:23;9.98;;;4.38;;
11191;SDS011;5652;48.406;10.820;2023-02-22T09:18:51;7.80;;;4.43;;
11191;SDS011;5652;48.406;10.820;2023-02-22T09:21:18;7.00;;;4.28;;
11191;SDS011;5652;48.406;10.820;2023-02-22T09:23:46;8.40;;;4.70;;
11191;SDS011;5652;48.406;10.820;2023-02-22T09:26:13;8.23;;;4.07;;
11191;SDS011;5652;48.406;10.820;2023-02-22T09:28:40;7.45;;;4.10;;
11191;SDS011;5652;48.406;10.820;2023-02-22T09:31:07;5.63;;;3.50;;
11191;SDS011;5652;48.406;10.820;2023-02-22T09:33:35;6.57;;;3.70;;
11191;SDS011;5652;48.406;10.820;2023-02-22T09:36:03;5.43;;;3.17;;
11191;SDS011;5652;48.406;10.820;2023-02-22T09:38:31;5.53;;;3.58;;
11191;SDS011;5652;48.406;10.820;2023-02-22T09:41:01;5.35;;;3.10;;
11191;SDS011;5652;48.406;10.820;2023-02-22T09:43:36;4.90;;;3.30;;
11191;SDS011;5652;48.406;10.820;2023-02-22T09:46:20;5.93;;;3.70;;
11191;SDS011;5652;48.406;10.820;2023-02-22T09:48:50;6.78;;;3.65;;
11191;SDS011;5652;48.406;10.820;2023-02-22T09:51:23;6.20;;;3.58;;
11191;SDS011;5652;48.406;10.820;2023-02-22T09:53:52;4.87;;;3.10;;
11191;SDS011;5652;48.406;10.820;2023-02-22T09:56:21;8.52;;;3.17;;
11191;SDS011;5652;48.406;10.820;2023-02-22T09:58:51;5.40;;;3.50;;
11191;SDS011;5652;48.406;10.820;2023-02-22T10:01:22;5.97;;;3.40;;
11191;SDS011;5652;48.406;10.820;2023-02-22T10:03:53;6.32;;;3.17;;
11191;SDS011;5652;48.406;10.820;2023-02-22T10:06:23;8.20;;;3.50;;
11191;SDS011;5652;48.406;10.820;2023-02-22T10:08:51;5.13;;;2.90;;
11191;SDS011;5652;48.406;10.820;2023-02-22T10:11:24;5.82;;;3.20;;
11191;SDS011;5652;48.406;10.820;2023-02-22T10:14:10;6.40;;;3.40;;
11191;SDS011;5652;48.406;10.820;2023-02-22T10:16:44;4.63;;;3.28;;
11191;SDS011;5652;48.406;10.820;2023-02-22T10:19:16;5.88;;;3.22;;
11191;SDS011;5652;48.406;10.820;2023-02-22T10:21:51;4.57;;;3.33;;
11191;SDS011;5652;48.406;10.820;2023-02-22T10:24:26;5.05;;;3.40;;
11191;SDS011;5652;48.406;10.820;2023-02-22T10:27:02;5.37;;;3.30;;
11191;SDS011;5652;48.406;10.820;2023-02-22T10:29:31;4.75;;;3.17;;
11191;SDS011;5652;48.406;10.820;2023-02-22T10:32:03;4.82;;;3.13;;
11191;SDS011;5652;48.406;10.820;2023-02-22T10:34:31;5.43;;;3.22;;
11191;SDS011;5652;48.406;10.820;2023-02-22T10:37:07;7.68;;;3.53;;
11191;SDS011;5652;48.406;10.820;2023-02-22T10:39:39;6.75;;;3.53;;
11191;SDS011;5652;48.406;10.820;2023-02-22T10:42:07;4.88;;;3.22;;
11191;SDS011;5652;48.406;10.820;2023-02-22T10:44:35;4.47;;;3.00;;
11191;SDS011;5652;48.406;10.820;2023-02-22T10:47:04;4.80;;;3.47;;
11191;SDS011;5652;48.406;10.820;2023-02-22T10:49:33;4.90;;;3.47;;
11191;SDS011;5652;48.406;10.820;2023-02-22T10:52:09;6.68;;;3.35;;
11191;SDS011;5652;48.406;10.820;2023-02-22T10:54:39;4.50;;;3.42;;
11191;SDS011;5652;48.406;10.820;2023-02-22T10:57:08;3.72;;;3.08;;
11191;SDS011;5652;48.406;10.820;2023-02-22T10:59:36;4.55;;;3.15;;
11191;SDS011;5652;48.406;10.820;2023-02-22T11:02:07;4.80;;;3.15;;
11191;SDS011;5652;48.406;10.820;2023-02-22T11:04:43;5.25;;;3.50;;
11191;SDS011;5652;48.406;10.820;2023-02-22T11:07:17;5.85;;;2.95;;
11191;SDS011;5652;48.406;10.820;2023-02-22T11:09:45;4.97;;;3.10;;
11191;SDS011;5652;48.406;10.820;2023-02-22T11:12:16;5.15;;;2.95;;
11191;SDS011;5652;48.406;10.820;2023-02-22T11:14:43;3.83;;;2.80;;
11191;SDS011;5652;48.406;10.820;2023-02-22T11:17:12;5.47;;;2.88;;
11191;SDS011;5652;48.406;10.820;2023-02-22T11:19:44;3.92;;;2.72;;
11191;SDS011;5652;48.406;10.820;2023-02-22T11:22:12;4.30;;;2.80;;
11191;SDS011;5652;48.406;10.820;2023-02-22T11:24:45;4.70;;;3.05;;
11191;SDS011;5652;48.406;10.820;2023-02-22T11:27:20;4.53;;;2.80;;
11191;SDS011;5652;48.406;10.820;2023-02-22T11:29:50;5.00;;;3.00;;
11191;SDS011;5652;48.406;10.820;2023-02-22T11:32:17;4.35;;;3.00;;
11191;SDS011;5652;48.406;10.820;2023-02-22T11:34:46;3.65;;;2.45;;
11191;SDS011;5652;48.406;10.820;2023-02-22T11:37:18;3.50;;;2.42;;
11191;SDS011;5652;48.406;10.820;2023-02-22T11:39:47;4.55;;;2.47;;
11191;SDS011;5652;48.406;10.820;2023-02-22T11:42:21;4.15;;;2.60;;
11191;SDS011;5652;48.406;10.820;2023-02-22T11:44:49;2.65;;;2.20;;
11191;SDS011;5652;48.406;10.820;2023-02-22T11:47:33;3.88;;;2.30;;
11191;SDS011;5652;48.406;10.820;2023-02-22T11:50:00;3.37;;;2.30;;
11191;SDS011;5652;48.406;10.820;2023-02-22T11:52:28;3.70;;;2.35;;
11191;SDS011;5652;48.406;10.820;2023-02-22T11:55:06;5.80;;;2.42;;
11191;SDS011;5652;48.406;10.820;2023-02-22T11:57:40;3.70;;;2.35;;
11191;SDS011;5652;48.406;10.820;2023-02-22T12:00:17;4.53;;;2.25;;
11191;SDS011;5652;48.406;10.820;2023-02-22T12:02:54;2.97;;;2.38;;
11191;SDS011;5652;48.406;10.820;2023-02-22T12:05:26;4.15;;;2.33;;
11191;SDS011;5652;48.406;10.820;2023-02-22T12:08:04;3.33;;;2.33;;
11191;SDS011;5652;48.406;10.820;2023-02-22T12:10:40;4.75;;;2.20;;
11191;SDS011;5652;48.406;10.820;2023-02-22T12:13:13;8.15;;;2.50;;
11191;SDS011;5652;48.406;10.820;2023-02-22T12:15:45;3.40;;;1.88;;
11191;SDS011;5652;48.406;10.820;2023-02-22T12:18:15;4.53;;;2.22;;
11191;SDS011;5652;48.406;10.820;2023-02-22T12:20:45;5.70;;;2.00;;
11191;SDS011;5652;48.406;10.820;2023-02-22T12:23:16;5.18;;;1.98;;
11191;SDS011;5652;48.406;10.820;2023-02-22T12:25:48;3.83;;;2.40;;
11191;SDS011;5652;48.406;10.820;2023-02-22T12:28:22;3.22;;;1.95;;
11191;SDS011;5652;48.406;10.820;2023-02-22T12:30:51;3.57;;;2.23;;
11191;SDS011;5652;48.406;10.820;2023-02-22T12:33:22;3.00;;;1.90;;
11191;SDS011;5652;48.406;10.820;2023-02-22T12:35:51;6.85;;;1.95;;
11191;SDS011;5652;48.406;10.820;2023-02-22T12:38:19;3.17;;;1.80;;
11191;SDS011;5652;48.406;10.820;2023-02-22T12:40:51;4.78;;;1.90;;
11191;SDS011;5652;48.406;10.820;2023-02-22T12:43:23;2.40;;;1.67;;
11191;SDS011;5652;48.406;10.820;2023-02-22T12:45:54;2.57;;;1.77;;
11191;SDS011;5652;48.406;10.820;2023-02-22T12:48:29;3.50;;;1.83;;
11191;SDS011;5652;48.406;10.820;2023-02-22T12:51:01;3.65;;;1.85;;
11191;SDS011;5652;48.406;10.820;2023-02-22T12:53:30;2.47;;;1.80;;
11191;SDS011;5652;48.406;10.820;2023-02-22T12:56:02;5.00;;;2.00;;
11191;SDS011;5652;48.406;10.820;2023-02-22T12:58:31;3.22;;;2.08;;
11191;SDS011;5652;48.406;10.820;2023-02-22T13:01:01;3.50;;;1.90;;
11191;SDS011;5652;48.406;10.820;2023-02-22T13:03:30;2.42;;;1.88;;
11191;SDS011;5652;48.406;10.820;2023-02-22T13:06:06;3.35;;;1.80;;
11191;SDS011;5652;48.406;10.820;2023-02-22T13:08:36;3.67;;;1.95;;
11191;SDS011;5652;48.406;10.820;2023-02-22T13:11:10;2.83;;;1.80;;
11191;SDS011;5652;48.406;10.820;2023-02-22T13:13:41;3.55;;;1.98;;
11191;SDS011;5652;48.406;10.820;2023-02-22T13:16:19;2.47;;;1.70;;
11191;SDS011;5652;48.406;10.820;2023-02-22T13:18:49;3.00;;;2.13;;
11191;SDS011;5652;48.406;10.820;2023-02-22T13:21:18;3.38;;;2.08;;
11191;SDS011;5652;48.406;10.820;2023-02-22T13:23:51;5.18;;;2.20;;
11191;SDS011;5652;48.406;10.820;2023-02-22T13:26:22;2.85;;;2.35;;
11191;SDS011;5652;48.406;10.820;2023-02-22T13:28:53;3.72;;;1.90;;
11191;SDS011;5652;48.406;10.820;2023-02-22T13:31:25;3.20;;;2.00;;
11191;SDS011;5652;48.406;10.820;2023-02-22T13:34:01;2.97;;;1.90;;
11191;SDS011;5652;48.406;10.820;2023-02-22T13:36:34;5.32;;;2.67;;
11191;SDS011;5652;48.406;10.820;2023-02-22T13:39:08;5.60;;;3.67;;
11191;SDS011;5652;48.406;10.820;2023-02-22T13:41:44;5.40;;;3.40;;
11191;SDS011;5652;48.406;10.820;2023-02-22T13:44:19;5.07;;;3.65;;
11191;SDS011;5652;48.406;10.820;2023-02-22T13:46:55;6.18;;;3.75;;
11191;SDS011;5652;48.406;10.820;2023-02-22T13:49:33;6.20;;;3.55;;
11191;SDS011;5652;48.406;10.820;2023-02-22T13:52:06;6.60;;;3.73;;
11191;SDS011;5652;48.406;10.820;2023-02-22T13:54:36;6.72;;;3.67;;
11191;SDS011;5652;48.406;10.820;2023-02-22T13:57:17;7.25;;;4.03;;
11191;SDS011;5652;48.406;10.820;2023-02-22T13:59:46;6.93;;;4.10;;
11191;SDS011;5652;48.406;10.820;2023-02-22T14:04:55;7.63;;;4.65;;
11191;SDS011;5652;48.406;10.820;2023-02-22T14:07:45;6.80;;;3.90;;
11191;SDS011;5652;48.406;10.820;2023-02-22T14:12:55;7.20;;;3.50;;
11191;SDS011;5652;48.406;10.820;2023-02-22T14:15:29;7.85;;;4.13;;
11191;SDS011;5652;48.406;10.820;2023-02-22T14:17:57;7.60;;;4.18;;
11191;SDS011;5652;48.406;10.820;2023-02-22T14:20:26;8.87;;;4.50;;
11191;SDS011;5652;48.406;10.820;2023-02-22T14:25:40;10.90;;;4.88;;
11191;SDS011;5652;48.406;10.820;2023-02-22T14:28:32;9.88;;;5.47;;
11191;SDS011;5652;48.406;10.820;2023-02-22T14:31:03;11.07;;;5.00;;
11191;SDS011;5652;48.406;10.820;2023-02-22T14:33:51;10.63;;;5.43;;
11191;SDS011;5652;48.406;10.820;2023-02-22T14:36:19;14.23;;;5.88;;
11191;SDS011;5652;48.406;10.820;2023-02-22T14:38:47;10.75;;;5.70;;
11191;SDS011;5652;48.406;10.820;2023-02-22T14:41:18;10.15;;;5.80;;
11191;SDS011;5652;48.406;10.820;2023-02-22T14:43:50;9.25;;;5.55;;
11191;SDS011;5652;48.406;10.820;2023-02-22T14:46:18;11.10;;;5.87;;
11191;SDS011;5652;48.406;10.820;2023-02-22T14:48:48;10.93;;;5.78;;
11191;SDS011;5652;48.406;10.820;2023-02-22T14:51:21;12.93;;;5.93;;
11191;SDS011;5652;48.406;10.820;2023-02-22T14:53:49;13.05;;;6.38;;
11191;SDS011;5652;48.406;10.820;2023-02-22T14:56:18;9.32;;;5.57;;
11191;SDS011;5652;48.406;10.820;2023-02-22T14:58:48;10.48;;;5.85;;
11191;SDS011;5652;48.406;10.820;2023-02-22T15:01:21;9.90;;;5.40;;
11191;SDS011;5652;48.406;10.820;2023-02-22T15:03:50;9.73;;;5.63;;
11191;SDS011;5652;48.406;10.820;2023-02-22T15:06:23;11.68;;;5.32;;
11191;SDS011;5652;48.406;10.820;2023-02-22T15:09:03;10.20;;;5.40;;
11191;SDS011;5652;48.406;10.820;2023-02-22T15:11:31;10.95;;;5.43;;
11191;SDS011;5652;48.406;10.820;2023-02-22T15:13:59;9.85;;;5.25;;